Time;durP1;ratioP1;P1;durP2;ratioP2;P2;SDS_P1;SDS_P2;PMS_P1;PMS_P2;Temp;Humidity;BMP_temperature;BMP_pressure;BME280_temperature;BME280_humidity;BME280_pressure;Samples;Min_cycle;Max_cycle;Signal;HPM_P1;HPM_P2
2022/03/30 00:00:22;;;;;;;21.43;12.60;;;;;;;;;;2085124;28;20566;-66
2022/03/30 00:01:22;;;;;;;26.83;15.07;;;;;;;;;;2080871;28;20517;-69
2022/03/30 00:02:22;;;;;;;26.60;14.47;;;;;;;;;;2091339;28;20233;-66
2022/03/30 00:03:23;;;;;;;24.47;13.53;;;;;;;;;;2088648;28;20174;-65
2022/03/30 00:04:23;;;;;;;20.73;13.97;;;;;;;;;;2094045;28;20749;-66
2022/03/30 00:05:23;;;;;;;27.57;14.57;;;;;;;;;;2095537;28;20159;-65
2022/03/30 00:06:23;;;;;;;20.93;13.53;;;;;;;;;;2095530;28;20178;-64
2022/03/30 00:07:24;;;;;;;26.40;14.70;;;;;;;;;;2089558;28;20190;-66
2022/03/30 00:08:24;;;;;;;25.63;14.30;;;;;;;;;;2089505;28;20187;-67
2022/03/30 00:09:25;;;;;;;21.70;13.10;;;;;;;;;;2089206;28;20183;-66
2022/03/30 00:10:25;;;;;;;22.23;13.33;;;;;;;;;;2089515;28;20275;-66
2022/03/30 00:11:26;;;;;;;20.90;13.20;;;;;;;;;;2085589;28;20182;-66
2022/03/30 00:12:27;;;;;;;22.60;13.30;;;;;;;;;;2079842;28;20555;-65
2022/03/30 00:13:27;;;;;;;21.87;13.50;;;;;;;;;;2082611;28;20176;-63
2022/03/30 00:14:27;;;;;;;19.77;14.00;;;;;;;;;;2088610;28;20218;-66
2022/03/30 00:15:28;;;;;;;26.13;13.70;;;;;;;;;;2086231;28;20532;-65
2022/03/30 00:16:28;;;;;;;21.50;14.37;;;;;;;;;;2088987;28;20544;-65
2022/03/30 00:17:31;;;;;;;20.30;14.43;;;;;;;;;;2088869;28;20183;-66
2022/03/30 00:18:32;;;;;;;24.80;13.53;;;;;;;;;;2075947;28;20204;-67
2022/03/30 00:19:32;;;;;;;20.23;13.57;;;;;;;;;;2078901;28;20627;-66
2022/03/30 00:20:32;;;;;;;24.13;13.63;;;;;;;;;;2096231;28;20751;-66
2022/03/30 00:21:33;;;;;;;23.30;14.23;;;;;;;;;;2080908;28;20267;-66
2022/03/30 00:22:33;;;;;;;19.70;13.50;;;;;;;;;;2080257;28;20233;-66
2022/03/30 00:23:33;;;;;;;26.73;14.30;;;;;;;;;;2088512;28;20203;-66
2022/03/30 00:24:34;;;;;;;23.90;14.20;;;;;;;;;;2095910;28;20239;-66
2022/03/30 00:25:34;;;;;;;26.30;14.07;;;;;;;;;;2089751;28;20175;-66
2022/03/30 00:26:34;;;;;;;26.83;14.33;;;;;;;;;;2089562;28;20188;-65
2022/03/30 00:27:35;;;;;;;20.93;14.17;;;;;;;;;;2080536;28;20172;-64
2022/03/30 00:28:35;;;;;;;24.43;14.17;;;;;;;;;;2072573;28;20259;-63
2022/03/30 00:29:36;;;;;;;21.53;13.27;;;;;;;;;;2080527;28;20215;-63
2022/03/30 00:30:36;;;;;;;18.57;12.80;;;;;;;;;;2089722;28;20172;-63
2022/03/30 00:31:36;;;;;;;22.47;13.67;;;;;;;;;;2089549;28;20182;-64
2022/03/30 00:32:37;;;;;;;21.83;13.43;;;;;;;;;;2089387;28;20180;-65
2022/03/30 00:33:37;;;;;;;23.50;15.03;;;;;;;;;;2080561;28;20249;-67
2022/03/30 00:34:39;;;;;;;27.17;14.27;;;;;;;;;;2080427;28;20200;-63
2022/03/30 00:35:39;;;;;;;25.17;13.47;;;;;;;;;;2089750;28;20171;-66
2022/03/30 00:36:39;;;;;;;23.13;14.20;;;;;;;;;;2089784;28;20259;-65
2022/03/30 00:37:40;;;;;;;25.40;14.47;;;;;;;;;;2090304;28;20172;-66
2022/03/30 00:38:40;;;;;;;25.57;14.97;;;;;;;;;;2097852;28;20171;-66
2022/03/30 00:39:41;;;;;;;25.20;14.57;;;;;;;;;;2086799;28;20180;-66
2022/03/30 00:40:42;;;;;;;27.63;15.97;;;;;;;;;;2072562;28;20204;-67
2022/03/30 00:41:42;;;;;;;24.43;14.63;;;;;;;;;;2072512;28;20613;-66
2022/03/30 00:42:43;;;;;;;26.63;15.57;;;;;;;;;;2072505;28;20534;-66
2022/03/30 00:43:43;;;;;;;22.40;13.40;;;;;;;;;;2072434;28;20187;-65
2022/03/30 00:44:44;;;;;;;22.93;13.83;;;;;;;;;;2080089;28;20196;-66
2022/03/30 00:45:44;;;;;;;21.13;14.23;;;;;;;;;;2090266;28;20202;-63
2022/03/30 00:46:44;;;;;;;22.47;13.93;;;;;;;;;;2089986;28;20184;-66
2022/03/30 00:47:45;;;;;;;20.33;13.37;;;;;;;;;;2090039;28;20176;-65
2022/03/30 00:48:45;;;;;;;25.70;14.70;;;;;;;;;;2089526;28;20176;-65
2022/03/30 00:49:46;;;;;;;23.20;13.63;;;;;;;;;;2091171;28;20167;-65
2022/03/30 00:50:46;;;;;;;23.30;14.63;;;;;;;;;;2089527;28;20176;-64
2022/03/30 00:51:47;;;;;;;28.07;13.97;;;;;;;;;;2089316;28;20172;-65
2022/03/30 00:52:50;;;;;;;22.23;14.17;;;;;;;;;;2072506;28;20231;-65
2022/03/30 00:53:50;;;;;;;21.83;14.13;;;;;;;;;;2073270;28;20257;-66
2022/03/30 00:54:51;;;;;;;30.23;14.13;;;;;;;;;;2088874;28;20659;-66
2022/03/30 00:55:52;;;;;;;23.67;15.33;;;;;;;;;;2089307;28;20191;-66
2022/03/30 00:56:52;;;;;;;24.17;13.90;;;;;;;;;;2089599;28;20186;-66
2022/03/30 00:57:54;;;;;;;25.47;14.67;;;;;;;;;;2089385;28;20604;-67
2022/03/30 00:58:54;;;;;;;26.70;14.30;;;;;;;;;;2089199;28;20687;-67
2022/03/30 00:59:55;;;;;;;22.73;14.47;;;;;;;;;;2089530;28;20179;-65
2022/03/30 01:00:55;;;;;;;26.23;14.70;;;;;;;;;;2089630;28;20176;-65
2022/03/30 01:01:55;;;;;;;24.53;16.03;;;;;;;;;;2080808;28;20295;-66
2022/03/30 01:02:56;;;;;;;20.87;14.47;;;;;;;;;;2080397;28;20556;-65
2022/03/30 01:03:56;;;;;;;25.13;15.00;;;;;;;;;;2088956;28;20191;-66
2022/03/30 01:04:56;;;;;;;22.13;14.50;;;;;;;;;;2071761;28;20235;-66
2022/03/30 01:05:57;;;;;;;22.40;15.30;;;;;;;;;;2072517;28;20647;-65
2022/03/30 01:06:57;;;;;;;24.30;16.13;;;;;;;;;;2089373;28;20195;-65
2022/03/30 01:07:58;;;;;;;26.70;16.33;;;;;;;;;;2089578;28;20644;-66
2022/03/30 01:08:59;;;;;;;25.67;16.23;;;;;;;;;;2089428;28;20596;-66
2022/03/30 01:09:59;;;;;;;29.17;17.10;;;;;;;;;;2089402;28;20702;-66
2022/03/30 01:11:00;;;;;;;28.77;15.60;;;;;;;;;;2089443;28;20179;-66
2022/03/30 01:12:00;;;;;;;25.63;15.73;;;;;;;;;;2089490;28;20705;-66
2022/03/30 01:13:02;;;;;;;25.77;16.10;;;;;;;;;;2094877;28;20232;-66
2022/03/30 01:14:03;;;;;;;29.73;15.50;;;;;;;;;;2099244;28;20189;-65
2022/03/30 01:15:03;;;;;;;25.17;15.73;;;;;;;;;;2085701;28;20172;-65
2022/03/30 01:16:04;;;;;;;26.40;15.00;;;;;;;;;;2082290;28;20663;-66
2022/03/30 01:17:05;;;;;;;24.93;16.30;;;;;;;;;;2081419;28;20191;-65
2022/03/30 01:18:05;;;;;;;23.57;15.33;;;;;;;;;;2084866;28;20213;-65
2022/03/30 01:19:07;;;;;;;23.13;16.33;;;;;;;;;;2096595;28;20198;-65
2022/03/30 01:20:08;;;;;;;27.37;15.10;;;;;;;;;;2080926;28;20303;-66
2022/03/30 01:21:09;;;;;;;19.67;13.63;;;;;;;;;;2081710;28;20226;-66
2022/03/30 01:22:09;;;;;;;25.13;14.47;;;;;;;;;;2082815;28;20768;-65
2022/03/30 01:23:09;;;;;;;26.97;15.03;;;;;;;;;;2085258;28;20202;-66
2022/03/30 01:24:12;;;;;;;24.67;15.73;;;;;;;;;;2091835;28;20253;-66
2022/03/30 01:25:12;;;;;;;24.30;14.60;;;;;;;;;;2091663;28;20211;-67
2022/03/30 01:26:13;;;;;;;29.07;16.03;;;;;;;;;;2090787;28;20180;-65
2022/03/30 01:27:13;;;;;;;25.07;14.67;;;;;;;;;;2088079;28;20200;-65
2022/03/30 01:28:14;;;;;;;22.50;15.40;;;;;;;;;;2081290;28;20187;-65
2022/03/30 01:33:14;;;;;;;24.20;13.87;;;;;;;;;;2078849;28;20175;-65
2022/03/30 01:34:14;;;;;;;26.77;15.20;;;;;;;;;;2081379;28;20168;-66
2022/03/30 01:35:15;;;;;;;26.87;14.77;;;;;;;;;;2089993;28;20214;-66
2022/03/30 01:36:18;;;;;;;24.90;14.57;;;;;;;;;;2083835;28;20164;-66
2022/03/30 01:37:18;;;;;;;23.63;13.33;;;;;;;;;;2086631;28;20672;-67
2022/03/30 01:38:18;;;;;;;21.43;13.73;;;;;;;;;;2087690;28;20226;-67
2022/03/30 01:39:18;;;;;;;25.20;15.93;;;;;;;;;;2094917;28;20256;-66
2022/03/30 01:40:19;;;;;;;26.17;15.13;;;;;;;;;;2085035;28;20274;-65
2022/03/30 01:41:19;;;;;;;21.77;14.40;;;;;;;;;;2080773;28;20176;-66
2022/03/30 01:42:19;;;;;;;26.53;15.43;;;;;;;;;;2081270;28;20205;-65
2022/03/30 01:43:21;;;;;;;25.17;15.23;;;;;;;;;;2090092;28;20183;-66
2022/03/30 01:44:21;;;;;;;23.63;14.33;;;;;;;;;;2065324;28;20685;-66
2022/03/30 01:45:22;;;;;;;27.10;14.43;;;;;;;;;;2065613;28;20260;-65
2022/03/30 01:46:22;;;;;;;25.50;16.17;;;;;;;;;;2085080;28;20619;-66
2022/03/30 01:47:24;;;;;;;28.80;15.23;;;;;;;;;;2093112;28;20178;-65
2022/03/30 01:48:24;;;;;;;29.03;16.10;;;;;;;;;;2097263;28;20548;-66
2022/03/30 01:49:25;;;;;;;23.13;15.33;;;;;;;;;;2082453;28;20176;-66
2022/03/30 01:50:26;;;;;;;25.27;15.27;;;;;;;;;;2076840;28;20623;-67
2022/03/30 01:51:27;;;;;;;24.00;15.00;;;;;;;;;;2089344;28;20206;-65
2022/03/30 01:52:27;;;;;;;22.73;15.40;;;;;;;;;;2090682;28;20183;-64
2022/03/30 01:53:27;;;;;;;25.80;15.50;;;;;;;;;;2090182;28;20168;-65
2022/03/30 01:54:28;;;;;;;24.47;14.73;;;;;;;;;;2085153;28;20291;-65
2022/03/30 01:55:28;;;;;;;21.73;14.40;;;;;;;;;;2081316;28;20188;-66
2022/03/30 01:56:29;;;;;;;24.40;15.90;;;;;;;;;;2089206;28;20258;-66
2022/03/30 01:57:29;;;;;;;23.23;14.77;;;;;;;;;;2082378;28;20667;-66
2022/03/30 01:58:29;;;;;;;23.60;15.77;;;;;;;;;;2098219;28;20179;-65
2022/03/30 01:59:30;;;;;;;24.27;15.10;;;;;;;;;;2081319;28;20269;-65
2022/03/30 02:00:30;;;;;;;24.10;16.37;;;;;;;;;;2081356;28;20183;-65
2022/03/30 02:01:30;;;;;;;24.53;14.53;;;;;;;;;;2094153;28;20164;-66
2022/03/30 02:02:33;;;;;;;22.53;14.20;;;;;;;;;;2085495;28;20181;-64
2022/03/30 02:03:33;;;;;;;22.83;15.53;;;;;;;;;;2090145;28;20175;-66
2022/03/30 02:04:35;;;;;;;25.50;15.57;;;;;;;;;;2089049;28;20215;-67
2022/03/30 02:05:35;;;;;;;23.93;14.80;;;;;;;;;;2105213;22;20228;-58
2022/03/30 02:06:36;;;;;;;26.23;15.83;;;;;;;;;;2087677;28;20179;-58
2022/03/30 02:07:37;;;;;;;23.20;14.53;;;;;;;;;;2090403;28;20194;-56
2022/03/30 02:08:37;;;;;;;23.87;15.70;;;;;;;;;;2088122;28;20172;-56
2022/03/30 02:09:38;;;;;;;24.23;14.13;;;;;;;;;;2089931;28;20636;-56
2022/03/30 02:10:38;;;;;;;24.23;15.03;;;;;;;;;;2088720;28;20587;-54
2022/03/30 02:11:39;;;;;;;21.80;15.33;;;;;;;;;;2091317;28;20180;-55
2022/03/30 02:12:39;;;;;;;23.70;14.37;;;;;;;;;;2090930;28;20222;-59
2022/03/30 02:13:39;;;;;;;27.40;15.03;;;;;;;;;;2091089;28;20677;-58
2022/03/30 02:14:41;;;;;;;24.17;15.23;;;;;;;;;;2088719;28;20176;-55
2022/03/30 02:15:41;;;;;;;23.80;15.37;;;;;;;;;;2093413;28;20191;-55
2022/03/30 02:16:41;;;;;;;23.13;14.43;;;;;;;;;;2091039;28;20363;-59
2022/03/30 02:17:41;;;;;;;22.83;14.87;;;;;;;;;;2089747;28;20529;-57
2022/03/30 02:18:42;;;;;;;21.67;14.17;;;;;;;;;;2085308;28;20180;-58
2022/03/30 02:19:42;;;;;;;24.43;14.93;;;;;;;;;;2092116;28;20172;-54
2022/03/30 02:20:42;;;;;;;19.23;14.87;;;;;;;;;;2084800;28;20180;-55
2022/03/30 02:21:43;;;;;;;24.03;15.07;;;;;;;;;;2085712;28;20215;-53
2022/03/30 02:22:43;;;;;;;23.50;14.70;;;;;;;;;;2082587;28;20193;-53
2022/03/30 02:23:47;;;;;;;27.70;15.17;;;;;;;;;;2085425;28;20179;-57
2022/03/30 02:24:51;;;;;;;24.80;15.10;;;;;;;;;;2088317;28;20176;-53
2022/03/30 02:25:51;;;;;;;23.90;15.57;;;;;;;;;;2093517;28;20215;-53
2022/03/30 02:26:52;;;;;;;25.30;15.07;;;;;;;;;;2094038;28;20171;-55
2022/03/30 02:27:53;;;;;;;26.43;15.80;;;;;;;;;;2093820;28;20638;-54
2022/03/30 02:28:54;;;;;;;23.90;15.40;;;;;;;;;;2092995;28;20180;-54
2022/03/30 02:29:54;;;;;;;26.97;15.77;;;;;;;;;;2089061;28;20168;-56
2022/03/30 02:30:55;;;;;;;25.27;16.13;;;;;;;;;;2092107;28;20206;-59
2022/03/30 02:31:55;;;;;;;28.93;16.30;;;;;;;;;;2084184;28;20240;-55
2022/03/30 02:32:57;;;;;;;23.57;16.87;;;;;;;;;;2084386;28;20173;-61
2022/03/30 02:33:57;;;;;;;22.47;14.57;;;;;;;;;;2084748;28;20575;-55
2022/03/30 02:34:58;;;;;;;27.90;17.37;;;;;;;;;;2082996;28;20186;-58
2022/03/30 02:35:58;;;;;;;30.43;16.03;;;;;;;;;;2092685;28;20199;-57
2022/03/30 02:37:00;;;;;;;26.17;15.47;;;;;;;;;;2089208;28;20182;-56
2022/03/30 02:38:00;;;;;;;28.83;15.50;;;;;;;;;;2092922;28;20172;-59
2022/03/30 02:39:00;;;;;;;23.43;15.83;;;;;;;;;;2084323;28;20231;-55
2022/03/30 02:40:01;;;;;;;25.87;15.07;;;;;;;;;;2076248;28;20173;-58
2022/03/30 02:41:03;;;;;;;27.73;15.33;;;;;;;;;;2084716;28;20227;-61
2022/03/30 02:42:03;;;;;;;25.70;15.43;;;;;;;;;;2093250;28;20661;-60
2022/03/30 02:43:03;;;;;;;25.83;15.73;;;;;;;;;;2093385;28;20160;-59
2022/03/30 02:44:04;;;;;;;24.93;15.57;;;;;;;;;;2083846;28;20523;-59
2022/03/30 02:45:04;;;;;;;23.50;15.53;;;;;;;;;;2083248;28;20211;-57
2022/03/30 02:46:05;;;;;;;27.13;15.60;;;;;;;;;;2076287;28;20215;-58
2022/03/30 02:47:05;;;;;;;27.33;15.63;;;;;;;;;;2078765;28;20227;-58
2022/03/30 02:48:18;;;;;;;23.77;14.90;;;;;;;;;;2091737;28;20175;-57
2022/03/30 02:49:18;;;;;;;24.70;15.90;;;;;;;;;;2087677;28;20168;-58
2022/03/30 02:50:18;;;;;;;27.43;15.50;;;;;;;;;;2089938;28;20182;-54
2022/03/30 02:51:18;;;;;;;22.83;15.00;;;;;;;;;;2086267;28;20177;-57
2022/03/30 02:52:19;;;;;;;21.63;15.30;;;;;;;;;;2087568;28;20258;-58
2022/03/30 02:53:20;;;;;;;26.33;16.77;;;;;;;;;;2085403;28;20211;-58
2022/03/30 02:54:20;;;;;;;25.87;15.77;;;;;;;;;;2080308;28;20528;-58
2022/03/30 02:55:21;;;;;;;22.80;15.37;;;;;;;;;;2079620;28;20191;-56
2022/03/30 02:56:21;;;;;;;24.30;15.33;;;;;;;;;;2080887;28;20573;-57
2022/03/30 02:57:21;;;;;;;26.13;16.40;;;;;;;;;;2081223;28;20179;-56
2022/03/30 02:58:22;;;;;;;24.03;15.17;;;;;;;;;;2088283;28;20191;-56
2022/03/30 02:59:22;;;;;;;23.63;15.03;;;;;;;;;;2090111;28;20217;-56
2022/03/30 03:00:23;;;;;;;24.27;16.50;;;;;;;;;;2090161;28;20229;-55
2022/03/30 03:01:23;;;;;;;26.73;16.50;;;;;;;;;;2089859;28;20329;-55
2022/03/30 03:02:23;;;;;;;25.70;15.17;;;;;;;;;;2090618;28;20229;-57
2022/03/30 03:03:24;;;;;;;26.07;16.57;;;;;;;;;;2089603;28;20183;-54
2022/03/30 03:04:24;;;;;;;23.97;14.77;;;;;;;;;;2084079;28;20227;-58
2022/03/30 03:05:27;;;;;;;25.97;16.10;;;;;;;;;;2075715;28;20559;-58
2022/03/30 03:06:28;;;;;;;23.57;15.43;;;;;;;;;;2083998;28;20172;-56
2022/03/30 03:07:28;;;;;;;24.37;15.17;;;;;;;;;;2092311;28;20172;-58
2022/03/30 03:08:29;;;;;;;22.53;16.50;;;;;;;;;;2083636;28;20176;-58
2022/03/30 03:09:29;;;;;;;25.33;15.73;;;;;;;;;;2081536;28;20169;-57
2022/03/30 03:10:30;;;;;;;26.40;16.97;;;;;;;;;;2079885;28;20215;-55
2022/03/30 03:11:30;;;;;;;25.47;15.03;;;;;;;;;;2080329;28;20707;-53
2022/03/30 03:12:30;;;;;;;23.97;15.30;;;;;;;;;;2089582;28;20208;-56
2022/03/30 03:13:30;;;;;;;29.00;16.47;;;;;;;;;;2084439;28;20210;-53
2022/03/30 03:14:31;;;;;;;28.23;16.17;;;;;;;;;;2078682;28;20676;-59
2022/03/30 03:15:32;;;;;;;26.13;17.30;;;;;;;;;;2080480;28;20259;-56
2022/03/30 03:16:33;;;;;;;26.87;16.73;;;;;;;;;;2090172;28;20546;-56
2022/03/30 03:17:33;;;;;;;23.80;15.90;;;;;;;;;;2080921;28;20176;-58
2022/03/30 03:18:35;;;;;;;22.50;16.33;;;;;;;;;;2081353;28;20353;-55
2022/03/30 03:19:35;;;;;;;32.67;17.40;;;;;;;;;;2076264;28;20190;-57
2022/03/30 03:20:35;;;;;;;20.97;15.07;;;;;;;;;;2081159;28;20660;-56
2022/03/30 03:21:36;;;;;;;27.70;17.33;;;;;;;;;;2082192;28;20175;-57
2022/03/30 03:22:37;;;;;;;23.03;15.10;;;;;;;;;;2088937;28;20259;-57
2022/03/30 03:23:37;;;;;;;26.87;15.77;;;;;;;;;;2081588;28;20727;-57
2022/03/30 03:24:38;;;;;;;24.93;17.27;;;;;;;;;;2088871;28;20183;-56
2022/03/30 03:25:39;;;;;;;25.80;16.80;;;;;;;;;;2090006;28;20186;-57
2022/03/30 03:26:40;;;;;;;28.50;17.30;;;;;;;;;;2089706;28;20172;-58
2022/03/30 03:27:40;;;;;;;24.60;16.50;;;;;;;;;;2090355;28;20222;-56
2022/03/30 03:28:40;;;;;;;29.50;16.87;;;;;;;;;;2088388;28;20265;-58
2022/03/30 03:29:41;;;;;;;24.77;16.77;;;;;;;;;;2089793;28;20179;-58
2022/03/30 03:30:41;;;;;;;28.30;16.83;;;;;;;;;;2088072;28;20168;-55
2022/03/30 03:31:42;;;;;;;28.97;17.70;;;;;;;;;;2086660;28;20175;-59
2022/03/30 03:32:42;;;;;;;27.47;15.90;;;;;;;;;;2087971;28;20586;-56
2022/03/30 03:33:42;;;;;;;24.27;16.27;;;;;;;;;;2089743;28;20632;-58
2022/03/30 03:34:42;;;;;;;24.93;15.90;;;;;;;;;;2087030;28;20251;-57
2022/03/30 03:35:43;;;;;;;30.97;16.87;;;;;;;;;;2089862;28;20185;-57
2022/03/30 03:36:43;;;;;;;24.60;15.40;;;;;;;;;;2086234;28;20645;-56
2022/03/30 03:37:43;;;;;;;23.33;15.60;;;;;;;;;;2080964;28;20168;-56
2022/03/30 03:38:44;;;;;;;23.97;16.73;;;;;;;;;;2081065;28;20187;-57
2022/03/30 03:39:44;;;;;;;24.90;16.77;;;;;;;;;;2089599;28;20167;-54
2022/03/30 03:40:44;;;;;;;29.83;16.20;;;;;;;;;;2089005;28;20648;-57
2022/03/30 03:41:45;;;;;;;32.33;18.10;;;;;;;;;;2089622;28;20206;-56
2022/03/30 03:42:45;;;;;;;27.53;16.73;;;;;;;;;;2089017;28;20639;-57
2022/03/30 03:43:45;;;;;;;24.37;16.43;;;;;;;;;;2080688;28;20196;-58
2022/03/30 03:44:45;;;;;;;25.20;17.03;;;;;;;;;;2080233;28;20179;-59
2022/03/30 03:45:46;;;;;;;24.17;15.90;;;;;;;;;;2089438;28;20202;-57
2022/03/30 03:46:46;;;;;;;26.90;16.93;;;;;;;;;;2084020;28;20183;-57
2022/03/30 03:47:48;;;;;;;28.37;16.37;;;;;;;;;;2086199;28;20172;-56
2022/03/30 03:48:48;;;;;;;29.13;16.43;;;;;;;;;;2089333;28;20321;-56
2022/03/30 03:49:48;;;;;;;27.93;15.87;;;;;;;;;;2088845;28;20167;-57
2022/03/30 03:50:49;;;;;;;22.43;16.43;;;;;;;;;;2072187;28;20177;-56
2022/03/30 03:51:49;;;;;;;26.10;16.13;;;;;;;;;;2071234;28;20181;-56
2022/03/30 03:52:49;;;;;;;24.37;15.33;;;;;;;;;;2089626;28;20214;-56
2022/03/30 03:53:50;;;;;;;22.23;15.07;;;;;;;;;;2088773;28;20529;-58
2022/03/30 03:54:50;;;;;;;24.03;16.40;;;;;;;;;;2085385;28;20399;-56
2022/03/30 03:55:50;;;;;;;25.77;15.53;;;;;;;;;;2088971;28;20218;-57
2022/03/30 03:56:51;;;;;;;21.57;15.23;;;;;;;;;;2089948;28;20682;-57
2022/03/30 03:57:51;;;;;;;23.80;15.67;;;;;;;;;;2084710;28;20168;-57
2022/03/30 03:58:52;;;;;;;25.10;15.87;;;;;;;;;;2083033;28;20258;-57
2022/03/30 03:59:52;;;;;;;24.37;16.23;;;;;;;;;;2086894;28;20233;-57
2022/03/30 04:00:52;;;;;;;21.63;14.77;;;;;;;;;;2075106;28;20200;-55
2022/03/30 04:01:53;;;;;;;24.03;15.97;;;;;;;;;;2078165;28;20196;-55
2022/03/30 04:02:53;;;;;;;22.90;14.70;;;;;;;;;;2074853;28;20216;-54
2022/03/30 04:03:53;;;;;;;24.30;15.43;;;;;;;;;;2080204;28;20200;-59
2022/03/30 04:04:53;;;;;;;20.63;15.13;;;;;;;;;;2089060;28;20205;-58
2022/03/30 04:05:54;;;;;;;26.70;15.53;;;;;;;;;;2088000;28;20206;-58
2022/03/30 04:06:54;;;;;;;27.77;14.70;;;;;;;;;;2080777;28;20177;-56
2022/03/30 04:07:55;;;;;;;23.30;15.40;;;;;;;;;;2072177;28;20648;-58
2022/03/30 04:08:55;;;;;;;23.37;15.63;;;;;;;;;;2075075;28;20692;-58
2022/03/30 04:09:55;;;;;;;22.33;14.20;;;;;;;;;;2079590;28;20177;-57
2022/03/30 04:10:55;;;;;;;25.43;17.10;;;;;;;;;;2077599;28;20548;-56
2022/03/30 04:11:56;;;;;;;26.20;15.77;;;;;;;;;;2080396;28;20173;-57
2022/03/30 04:12:56;;;;;;;26.07;15.60;;;;;;;;;;2079778;28;20246;-56
2022/03/30 04:13:56;;;;;;;24.77;15.83;;;;;;;;;;2080297;28;20181;-57
2022/03/30 04:14:56;;;;;;;24.67;14.87;;;;;;;;;;2088358;28;20183;-58
2022/03/30 04:15:57;;;;;;;24.23;15.23;;;;;;;;;;2086477;28;20687;-56
2022/03/30 04:16:57;;;;;;;29.57;16.40;;;;;;;;;;2079871;28;20169;-56
2022/03/30 04:17:57;;;;;;;22.93;15.43;;;;;;;;;;2072012;28;20668;-57
2022/03/30 04:18:58;;;;;;;25.83;15.07;;;;;;;;;;2074982;28;20261;-57
2022/03/30 04:19:58;;;;;;;24.40;14.93;;;;;;;;;;2079525;28;20199;-59
2022/03/30 04:20:58;;;;;;;21.90;14.93;;;;;;;;;;2072163;28;20185;-56
2022/03/30 04:21:59;;;;;;;21.57;15.97;;;;;;;;;;2080408;28;20294;-59
2022/03/30 04:22:59;;;;;;;25.30;14.90;;;;;;;;;;2080075;28;20182;-58
2022/03/30 04:24:00;;;;;;;23.47;16.27;;;;;;;;;;2079675;28;20164;-56
2022/03/30 04:25:00;;;;;;;27.20;15.43;;;;;;;;;;2079739;28;20278;-56
2022/03/30 04:26:00;;;;;;;21.33;16.03;;;;;;;;;;2088362;28;20191;-57
2022/03/30 04:27:00;;;;;;;24.70;16.40;;;;;;;;;;2089213;28;20182;-57
2022/03/30 04:28:01;;;;;;;25.63;15.63;;;;;;;;;;2088475;28;20196;-56
2022/03/30 04:29:01;;;;;;;25.67;15.73;;;;;;;;;;2089920;28;20163;-55
2022/03/30 04:30:02;;;;;;;23.97;14.87;;;;;;;;;;2088265;28;20176;-57
2022/03/30 04:31:02;;;;;;;25.17;15.60;;;;;;;;;;2086642;28;20240;-57
2022/03/30 04:32:03;;;;;;;24.03;15.60;;;;;;;;;;2075713;28;20164;-58
2022/03/30 04:33:03;;;;;;;23.07;15.13;;;;;;;;;;2076654;28;20308;-59
2022/03/30 04:34:04;;;;;;;22.90;15.83;;;;;;;;;;2088592;28;20179;-56
2022/03/30 04:35:04;;;;;;;21.90;15.60;;;;;;;;;;2086805;28;20214;-58
2022/03/30 04:36:05;;;;;;;25.77;17.13;;;;;;;;;;2086948;28;20242;-59
2022/03/30 04:37:05;;;;;;;25.50;16.10;;;;;;;;;;2085489;28;20172;-57
2022/03/30 04:38:06;;;;;;;24.93;15.80;;;;;;;;;;2080156;28;20665;-57
2022/03/30 04:39:06;;;;;;;25.97;15.80;;;;;;;;;;2080778;28;20172;-56
2022/03/30 04:40:07;;;;;;;25.27;15.43;;;;;;;;;;2085764;28;20255;-56
2022/03/30 04:41:07;;;;;;;27.47;15.60;;;;;;;;;;2086151;28;20186;-57
2022/03/30 04:42:07;;;;;;;25.47;15.87;;;;;;;;;;2088778;28;20201;-57
2022/03/30 04:43:07;;;;;;;25.73;15.90;;;;;;;;;;2089705;28;20225;-57
2022/03/30 04:44:08;;;;;;;23.07;15.33;;;;;;;;;;2087922;28;20204;-55
2022/03/30 04:45:08;;;;;;;21.83;15.63;;;;;;;;;;2087731;28;20176;-56
2022/03/30 04:46:09;;;;;;;26.30;16.67;;;;;;;;;;2088387;28;20192;-56
2022/03/30 04:47:09;;;;;;;28.13;16.07;;;;;;;;;;2089441;28;20172;-56
2022/03/30 04:48:09;;;;;;;24.20;15.17;;;;;;;;;;2088048;28;20172;-55
2022/03/30 04:49:10;;;;;;;27.23;16.03;;;;;;;;;;2088167;28;20678;-56
2022/03/30 04:50:10;;;;;;;25.70;15.60;;;;;;;;;;2090243;28;20617;-58
2022/03/30 04:51:10;;;;;;;25.17;16.50;;;;;;;;;;2088086;28;20203;-55
2022/03/30 04:52:11;;;;;;;24.27;16.60;;;;;;;;;;2087471;28;20206;-55
2022/03/30 04:53:11;;;;;;;27.20;17.33;;;;;;;;;;2087262;28;20187;-56
2022/03/30 04:54:11;;;;;;;25.60;16.00;;;;;;;;;;2082363;28;20227;-56
2022/03/30 04:55:12;;;;;;;24.97;15.83;;;;;;;;;;2090532;28;20272;-57
2022/03/30 04:56:12;;;;;;;24.47;16.40;;;;;;;;;;2088036;28;20202;-57
2022/03/30 04:57:12;;;;;;;25.03;16.73;;;;;;;;;;2081785;28;20717;-57
2022/03/30 04:58:13;;;;;;;21.87;15.17;;;;;;;;;;2081135;28;20172;-57
2022/03/30 04:59:13;;;;;;;24.67;15.87;;;;;;;;;;2089844;28;20278;-57
2022/03/30 05:00:13;;;;;;;25.77;16.97;;;;;;;;;;2086292;28;20267;-55
2022/03/30 05:01:14;;;;;;;28.23;17.13;;;;;;;;;;2086927;28;20256;-54
2022/03/30 05:02:15;;;;;;;23.90;15.00;;;;;;;;;;2088345;28;20218;-56
2022/03/30 05:03:15;;;;;;;24.70;16.43;;;;;;;;;;2088529;28;20560;-57
2022/03/30 05:04:16;;;;;;;24.27;15.57;;;;;;;;;;2081097;28;20211;-56
2022/03/30 05:05:16;;;;;;;24.57;17.13;;;;;;;;;;2081734;28;20177;-54
2022/03/30 05:06:16;;;;;;;27.10;16.07;;;;;;;;;;2088405;28;20714;-56
2022/03/30 05:07:16;;;;;;;26.43;16.03;;;;;;;;;;2089238;28;20485;-54
2022/03/30 05:08:17;;;;;;;32.23;16.07;;;;;;;;;;2082194;28;20204;-55
2022/03/30 05:09:17;;;;;;;43.50;18.13;;;;;;;;;;2073709;28;20177;-57
2022/03/30 05:10:18;;;;;;;34.23;15.70;;;;;;;;;;2082358;28;20162;-56
2022/03/30 05:11:18;;;;;;;36.43;17.47;;;;;;;;;;2090654;28;20179;-56
2022/03/30 05:12:18;;;;;;;38.90;17.43;;;;;;;;;;2091399;28;20202;-58
2022/03/30 05:13:19;;;;;;;31.53;15.80;;;;;;;;;;2090877;28;20286;-56
2022/03/30 05:14:19;;;;;;;34.27;17.67;;;;;;;;;;2090857;28;20560;-53
2022/03/30 05:15:19;;;;;;;27.80;17.60;;;;;;;;;;2090315;28;20566;-53
2022/03/30 05:16:19;;;;;;;31.17;17.17;;;;;;;;;;2091304;28;20608;-54
2022/03/30 05:17:20;;;;;;;31.53;17.93;;;;;;;;;;2084594;28;20184;-56
2022/03/30 05:18:20;;;;;;;29.30;18.33;;;;;;;;;;2088370;28;20215;-56
2022/03/30 05:19:20;;;;;;;34.57;18.67;;;;;;;;;;2089677;28;20193;-55
2022/03/30 05:20:21;;;;;;;30.87;17.30;;;;;;;;;;2091273;28;20180;-56
2022/03/30 05:21:21;;;;;;;31.17;18.10;;;;;;;;;;2090573;28;20183;-56
2022/03/30 05:22:21;;;;;;;41.57;19.60;;;;;;;;;;2091626;28;20202;-58
2022/03/30 05:23:21;;;;;;;48.47;18.80;;;;;;;;;;2094379;28;20586;-54
2022/03/30 05:24:22;;;;;;;39.10;18.97;;;;;;;;;;2092790;28;20841;-54
2022/03/30 05:25:23;;;;;;;34.43;19.47;;;;;;;;;;2073491;28;20187;-52
2022/03/30 05:26:23;;;;;;;36.23;19.83;;;;;;;;;;2072207;28;20531;-56
2022/03/30 05:27:23;;;;;;;46.27;18.87;;;;;;;;;;2080415;28;20180;-57
2022/03/30 05:28:23;;;;;;;44.70;18.73;;;;;;;;;;2081344;28;20187;-55
2022/03/30 05:29:24;;;;;;;38.57;18.83;;;;;;;;;;2081783;28;20172;-56
2022/03/30 05:30:24;;;;;;;42.53;18.17;;;;;;;;;;2087404;28;20187;-56
2022/03/30 05:31:24;;;;;;;38.80;17.87;;;;;;;;;;2087652;28;20187;-55
2022/03/30 05:32:24;;;;;;;30.60;16.83;;;;;;;;;;2082188;28;20180;-57
2022/03/30 05:33:25;;;;;;;36.20;17.13;;;;;;;;;;2078018;28;20180;-57
2022/03/30 05:34:25;;;;;;;31.43;16.57;;;;;;;;;;2081255;28;20172;-57
2022/03/30 05:35:25;;;;;;;27.33;16.37;;;;;;;;;;2084238;28;20184;-55
2022/03/30 05:36:26;;;;;;;36.20;17.27;;;;;;;;;;2088731;28;20179;-56
2022/03/30 05:37:26;;;;;;;29.03;16.00;;;;;;;;;;2090155;28;20698;-57
2022/03/30 05:38:27;;;;;;;24.13;15.47;;;;;;;;;;2086503;28;20207;-55
2022/03/30 05:39:27;;;;;;;28.33;17.17;;;;;;;;;;2082119;28;20211;-58
2022/03/30 05:40:27;;;;;;;27.90;17.20;;;;;;;;;;2085580;28;20495;-57
2022/03/30 05:41:28;;;;;;;23.70;16.07;;;;;;;;;;2097393;28;20187;-57
2022/03/30 05:42:28;;;;;;;26.83;14.80;;;;;;;;;;2092996;28;20199;-52
2022/03/30 05:43:28;;;;;;;25.93;15.17;;;;;;;;;;2091464;28;20180;-55
2022/03/30 05:44:28;;;;;;;30.63;16.03;;;;;;;;;;2090638;28;20258;-56
2022/03/30 05:45:29;;;;;;;25.03;15.03;;;;;;;;;;2094945;28;20220;-58
2022/03/30 05:46:29;;;;;;;24.37;15.67;;;;;;;;;;2096685;28;20279;-57
2022/03/30 05:47:29;;;;;;;26.13;16.40;;;;;;;;;;2097121;28;20175;-57
2022/03/30 05:48:29;;;;;;;23.80;15.90;;;;;;;;;;2087172;28;20239;-56
2022/03/30 05:49:30;;;;;;;24.57;16.43;;;;;;;;;;2090773;28;20169;-57
2022/03/30 05:50:30;;;;;;;28.10;17.20;;;;;;;;;;2097249;28;20217;-58
2022/03/30 05:51:30;;;;;;;31.37;15.23;;;;;;;;;;2098044;28;20171;-56
2022/03/30 05:52:31;;;;;;;28.27;16.20;;;;;;;;;;2095244;28;20223;-57
2022/03/30 05:53:31;;;;;;;26.67;17.17;;;;;;;;;;2097996;28;20270;-56
2022/03/30 05:54:31;;;;;;;28.27;16.77;;;;;;;;;;2097836;28;20693;-58
2022/03/30 05:55:32;;;;;;;36.10;17.87;;;;;;;;;;2095939;28;20267;-54